Time;durP1;ratioP1;P1;durP2;ratioP2;P2;SDS_P1;SDS_P2;PMS_P1;PMS_P2;Temp;Humidity;BMP_temperature;BMP_pressure;BME280_temperature;BME280_humidity;BME280_pressure;Samples;Min_cycle;Max_cycle;Signal;HPM_P1;HPM_P2
2021/10/24 00:00:55;;;;;;;7.28;4.25;;;7.50;99.90;;;;;;4943758;29;20220;-93
2021/10/24 00:03:20;;;;;;;9.57;4.00;;;7.50;99.90;;;;;;4947185;29;20230;-93
2021/10/24 00:05:46;;;;;;;5.83;3.83;;;7.50;99.90;;;;;;4942723;29;20450;-94
2021/10/24 00:08:12;;;;;;;9.67;4.77;;;7.50;99.90;;;;;;4959831;29;20177;-93
2021/10/24 00:10:38;;;;;;;8.07;4.47;;;7.40;99.90;;;;;;4960706;28;20205;-94
2021/10/24 00:13:03;;;;;;;7.97;4.10;;;7.40;99.90;;;;;;4944057;29;20228;-92
2021/10/24 00:15:29;;;;;;;8.10;4.43;;;7.40;99.90;;;;;;4964343;28;20221;-93
2021/10/24 00:17:55;;;;;;;5.80;4.00;;;7.30;99.90;;;;;;4945715;29;20188;-93
2021/10/24 00:20:21;;;;;;;4.43;3.80;;;7.30;99.90;;;;;;4943205;29;20681;-93
2021/10/24 00:22:47;;;;;;;12.85;4.40;;;7.30;99.90;;;;;;4946668;29;20181;-93
2021/10/24 00:25:12;;;;;;;5.43;3.97;;;7.30;99.90;;;;;;4961819;28;20205;-91
2021/10/24 00:27:38;;;;;;;5.47;4.20;;;7.30;99.90;;;;;;4942311;29;20287;-92
2021/10/24 00:30:05;;;;;;;5.50;3.67;;;7.20;99.90;;;;;;4941926;29;20193;-95
2021/10/24 00:32:31;;;;;;;11.10;4.32;;;7.20;99.90;;;;;;4962058;29;20260;-92
2021/10/24 00:34:57;;;;;;;7.67;4.67;;;7.10;99.90;;;;;;4941684;29;20426;-94
2021/10/24 00:37:22;;;;;;;4.97;3.77;;;7.10;99.90;;;;;;4944615;29;20701;-92
2021/10/24 00:39:48;;;;;;;5.80;3.80;;;7.10;99.90;;;;;;4962716;28;20239;-94
2021/10/24 00:42:14;;;;;;;4.63;3.57;;;7.10;99.90;;;;;;4944983;29;20233;-93
2021/10/24 00:44:40;;;;;;;5.83;3.90;;;7.00;99.90;;;;;;4965516;28;20198;-93
2021/10/24 00:47:06;;;;;;;8.98;4.10;;;7.00;99.90;;;;;;4942187;29;20189;-93
2021/10/24 00:49:34;;;;;;;8.40;4.95;;;7.00;99.90;;;;;;4940934;29;20201;-93
2021/10/24 00:52:00;;;;;;;5.03;4.13;;;7.00;99.90;;;;;;4959123;29;20184;-92
2021/10/24 00:54:28;;;;;;;6.90;4.85;;;7.00;99.90;;;;;;4941932;29;20236;-92
2021/10/24 00:56:56;;;;;;;8.30;4.47;;;7.00;99.90;;;;;;4942918;29;20631;-94
2021/10/24 00:59:23;;;;;;;5.70;4.00;;;6.90;99.90;;;;;;4941855;29;20534;-92
2021/10/24 01:01:49;;;;;;;5.55;4.22;;;6.90;99.90;;;;;;4942545;29;20225;-92
2021/10/24 01:04:15;;;;;;;12.07;4.33;;;6.90;99.90;;;;;;4961223;28;20258;-91
2021/10/24 01:06:42;;;;;;;6.43;4.13;;;6.80;99.90;;;;;;4941236;29;20800;-91
2021/10/24 01:09:15;;;;;;;4.30;3.80;;;6.80;99.90;;;;;;4941021;28;20188;-93
2021/10/24 01:11:42;;;;;;;7.20;4.28;;;6.80;99.90;;;;;;4942424;29;20232;-94
2021/10/24 01:14:08;;;;;;;10.13;4.10;;;6.80;99.90;;;;;;4941247;28;20232;-92
2021/10/24 01:16:36;;;;;;;5.78;3.75;;;6.70;99.90;;;;;;4942673;29;20192;-92
2021/10/24 01:19:06;;;;;;;6.30;4.25;;;6.70;99.90;;;;;;4950353;28;20244;-93
2021/10/24 01:21:32;;;;;;;8.63;4.30;;;6.70;99.90;;;;;;4962729;29;20217;-92
2021/10/24 01:23:59;;;;;;;6.07;4.15;;;6.70;99.90;;;;;;4941143;28;20189;-94
2021/10/24 01:26:26;;;;;;;4.43;3.35;;;6.70;99.90;;;;;;4945955;29;20237;-92
2021/10/24 01:28:52;;;;;;;14.20;4.60;;;6.60;99.90;;;;;;4959077;29;20176;-92
2021/10/24 01:31:18;;;;;;;5.53;4.20;;;6.60;99.90;;;;;;4941200;29;20317;-93
2021/10/24 01:33:44;;;;;;;5.90;4.20;;;6.60;99.90;;;;;;4941144;29;20192;-91
2021/10/24 01:36:10;;;;;;;8.83;4.17;;;6.50;99.90;;;;;;4940649;29;20209;-92
2021/10/24 01:38:38;;;;;;;5.07;4.38;;;6.50;99.90;;;;;;4941036;29;20268;-91
2021/10/24 01:41:08;;;;;;;5.43;4.55;;;6.50;99.90;;;;;;4943227;29;20629;-92
2021/10/24 01:43:34;;;;;;;12.85;4.18;;;6.40;99.90;;;;;;4943244;29;20177;-93
2021/10/24 01:46:00;;;;;;;6.28;4.05;;;6.40;99.90;;;;;;4960989;28;20213;-93
2021/10/24 01:48:26;;;;;;;7.27;4.30;;;6.40;99.90;;;;;;4942621;29;20610;-91
2021/10/24 01:50:54;;;;;;;11.20;4.40;;;6.40;99.90;;;;;;4948320;29;20417;-92
2021/10/24 01:53:24;;;;;;;8.80;4.85;;;6.40;99.90;;;;;;4941676;29;20189;-92
2021/10/24 01:55:50;;;;;;;10.98;4.85;;;6.30;99.90;;;;;;4946052;29;20208;-94
2021/10/24 01:58:16;;;;;;;5.47;4.22;;;6.30;99.90;;;;;;4958456;29;20248;-93
2021/10/24 02:00:43;;;;;;;7.03;4.50;;;6.30;99.90;;;;;;4957898;28;20213;-93
2021/10/24 02:03:10;;;;;;;9.07;4.28;;;6.30;99.90;;;;;;4940405;29;20189;-93
2021/10/24 02:05:36;;;;;;;8.48;4.90;;;6.30;99.90;;;;;;4940749;29;20256;-93
2021/10/24 02:08:02;;;;;;;8.05;3.92;;;6.30;99.90;;;;;;4942605;29;20177;-92
2021/10/24 02:10:28;;;;;;;7.45;4.50;;;6.30;99.90;;;;;;4958409;28;20274;-92
2021/10/24 02:12:54;;;;;;;9.07;4.30;;;6.20;99.90;;;;;;4943512;29;20180;-92
2021/10/24 02:15:19;;;;;;;5.50;4.00;;;6.20;99.90;;;;;;4961412;28;20228;-93
2021/10/24 02:17:45;;;;;;;6.17;4.53;;;6.20;99.90;;;;;;4940768;29;20264;-93
2021/10/24 02:20:11;;;;;;;8.43;4.40;;;6.20;99.90;;;;;;4956778;28;20431;-93
2021/10/24 02:22:38;;;;;;;6.27;4.20;;;6.20;99.90;;;;;;4940778;29;20244;-91
2021/10/24 02:25:04;;;;;;;8.52;4.68;;;6.20;99.90;;;;;;4957093;28;20417;-93
2021/10/24 02:27:30;;;;;;;10.10;5.00;;;6.20;99.90;;;;;;4957643;28;20228;-93
2021/10/24 02:29:56;;;;;;;9.10;4.80;;;6.20;99.90;;;;;;4945338;29;20196;-93
2021/10/24 02:32:22;;;;;;;8.70;4.73;;;6.10;99.90;;;;;;4942906;29;20184;-93
2021/10/24 02:34:48;;;;;;;7.77;4.50;;;6.10;99.90;;;;;;4939799;29;20481;-93
2021/10/24 02:37:14;;;;;;;9.23;4.90;;;6.10;99.90;;;;;;4940961;29;20514;-92
2021/10/24 02:39:40;;;;;;;6.77;4.30;;;6.10;99.90;;;;;;4942967;29;20232;-92
2021/10/24 02:42:08;;;;;;;8.00;4.33;;;6.20;99.90;;;;;;4941699;29;20331;-92
2021/10/24 02:44:34;;;;;;;9.05;4.60;;;6.20;99.90;;;;;;4943986;29;20441;-93
2021/10/24 02:47:01;;;;;;;6.68;4.45;;;6.20;99.90;;;;;;4958388;29;20185;-95
2021/10/24 02:49:27;;;;;;;10.23;4.80;;;6.20;99.90;;;;;;4956778;28;20570;-94
2021/10/24 02:51:56;;;;;;;6.57;4.88;;;6.20;99.90;;;;;;4939856;29;20243;-93
2021/10/24 02:54:23;;;;;;;10.95;4.55;;;6.20;99.90;;;;;;4944605;29;20201;-93
2021/10/24 02:56:49;;;;;;;7.15;5.30;;;6.20;99.90;;;;;;4945160;29;20192;-93
2021/10/24 02:59:15;;;;;;;12.18;3.83;;;6.20;99.90;;;;;;4942196;28;20196;-93
2021/10/24 03:01:41;;;;;;;5.40;4.03;;;6.20;99.90;;;;;;4957342;29;20213;-93
2021/10/24 03:04:07;;;;;;;6.80;4.77;;;6.20;99.90;;;;;;4940855;28;20273;-92
2021/10/24 03:06:32;;;;;;;7.20;5.23;;;6.10;99.90;;;;;;4957608;29;20260;-92
2021/10/24 03:08:58;;;;;;;8.00;5.00;;;6.10;99.90;;;;;;4942375;28;20181;-90
2021/10/24 03:11:24;;;;;;;7.80;4.80;;;6.10;99.90;;;;;;4963575;28;20185;-92
2021/10/24 03:13:49;;;;;;;10.67;4.40;;;6.10;99.90;;;;;;4953740;29;20252;-91
2021/10/24 03:16:15;;;;;;;6.13;4.40;;;6.10;99.90;;;;;;4945588;29;20205;-92
2021/10/24 03:18:41;;;;;;;8.63;5.38;;;6.00;99.90;;;;;;4960205;29;20173;-92
2021/10/24 03:21:07;;;;;;;11.70;5.47;;;6.00;99.90;;;;;;4943095;29;20224;-94
2021/10/24 03:23:33;;;;;;;11.63;4.60;;;6.00;99.90;;;;;;4960856;29;20256;-92
2021/10/24 03:25:59;;;;;;;7.78;4.20;;;6.00;99.90;;;;;;4948098;29;20288;-92
2021/10/24 03:28:25;;;;;;;7.10;4.90;;;6.00;99.90;;;;;;4943608;29;20181;-94
2021/10/24 03:30:51;;;;;;;6.80;4.60;;;6.00;99.90;;;;;;4960485;28;20421;-92
2021/10/24 03:33:17;;;;;;;8.80;5.13;;;5.90;99.90;;;;;;4960436;29;20404;-94
2021/10/24 03:35:43;;;;;;;6.20;4.30;;;5.90;99.90;;;;;;4944362;29;20447;-93
2021/10/24 03:38:09;;;;;;;5.90;5.18;;;5.90;99.90;;;;;;4946792;29;20768;-93
2021/10/24 03:40:36;;;;;;;6.10;4.63;;;5.90;99.90;;;;;;4948427;29;20241;-92
2021/10/24 03:43:02;;;;;;;7.90;4.57;;;5.90;99.90;;;;;;4945502;29;20433;-94
2021/10/24 03:45:27;;;;;;;8.25;4.45;;;5.80;99.90;;;;;;4960052;28;20223;-93
2021/10/24 03:47:53;;;;;;;6.80;5.20;;;5.80;99.90;;;;;;4943517;29;20177;-92
2021/10/24 03:50:19;;;;;;;6.23;4.60;;;5.80;99.90;;;;;;4960075;28;20202;-93
2021/10/24 03:52:44;;;;;;;10.00;5.53;;;5.80;99.90;;;;;;4943030;29;20822;-92
2021/10/24 03:55:12;;;;;;;10.03;5.33;;;5.80;99.90;;;;;;4943458;29;20201;-92
2021/10/24 03:57:43;;;;;;;12.15;6.15;;;5.70;99.90;;;;;;4942683;29;20213;-93
2021/10/24 04:00:10;;;;;;;10.48;7.03;;;5.70;99.90;;;;;;4959392;28;20189;-92
2021/10/24 04:02:55;;;;;;;9.30;5.95;;;5.70;99.90;;;;;;4942644;29;20216;-92
2021/10/24 04:05:21;;;;;;;8.80;6.25;;;5.70;99.90;;;;;;4943475;29;20686;-93
2021/10/24 04:07:48;;;;;;;9.68;6.40;;;5.60;99.90;;;;;;4942641;29;20177;-92
2021/10/24 04:10:16;;;;;;;5.80;5.25;;;5.60;99.90;;;;;;4959245;28;21314;-92
2021/10/24 04:12:42;;;;;;;8.73;5.38;;;5.60;99.90;;;;;;4942230;29;20205;-91
2021/10/24 04:15:08;;;;;;;6.97;5.40;;;5.60;99.90;;;;;;4959532;28;20197;-93
2021/10/24 04:17:33;;;;;;;8.02;5.45;;;5.60;99.90;;;;;;4961448;29;20474;-92
2021/10/24 04:19:59;;;;;;;13.23;6.10;;;5.50;99.90;;;;;;4945812;29;20217;-92
2021/10/24 04:22:25;;;;;;;6.70;4.77;;;5.50;99.90;;;;;;4948358;28;20784;-92
2021/10/24 04:24:51;;;;;;;10.07;5.70;;;5.50;99.90;;;;;;4943906;29;20205;-93
2021/10/24 04:27:16;;;;;;;8.17;5.10;;;5.50;99.90;;;;;;4960519;28;20225;-93
2021/10/24 04:29:42;;;;;;;13.30;5.97;;;5.50;99.90;;;;;;4945417;29;20257;-92
2021/10/24 04:32:08;;;;;;;5.83;4.97;;;5.50;99.90;;;;;;4963640;28;20410;-93
2021/10/24 04:34:33;;;;;;;9.03;5.30;;;5.50;99.90;;;;;;4944185;29;20198;-93
2021/10/24 04:36:59;;;;;;;10.63;6.23;;;5.40;99.90;;;;;;4958732;29;20205;-93
2021/10/24 04:39:25;;;;;;;8.10;5.87;;;5.40;99.90;;;;;;4941887;29;20313;-93
2021/10/24 04:41:50;;;;;;;14.63;6.50;;;5.40;99.90;;;;;;4958934;29;20220;-93
2021/10/24 04:44:16;;;;;;;9.13;5.97;;;5.40;99.90;;;;;;4946507;28;20283;-93
2021/10/24 04:46:42;;;;;;;14.57;7.40;;;5.40;99.90;;;;;;4934026;29;20221;-92
2021/10/24 04:49:07;;;;;;;6.40;5.80;;;5.40;99.90;;;;;;4919593;29;20237;-92
2021/10/24 04:51:33;;;;;;;10.47;6.33;;;5.40;99.90;;;;;;4922329;29;20686;-95
2021/10/24 04:53:59;;;;;;;9.57;5.23;;;5.40;99.90;;;;;;4920991;29;20524;-93
2021/10/24 04:56:24;;;;;;;7.47;5.57;;;5.30;99.90;;;;;;4922414;29;20185;-93
2021/10/24 04:58:50;;;;;;;5.50;4.80;;;5.30;99.90;;;;;;4928562;29;20174;-92
2021/10/24 05:01:16;;;;;;;6.77;5.33;;;5.20;99.90;;;;;;4931728;29;20250;-92
2021/10/24 05:03:48;;;;;;;10.80;7.30;;;5.20;99.90;;;;;;4929157;29;20185;-93
2021/10/24 05:06:14;;;;;;;7.75;5.05;;;5.20;99.90;;;;;;4919973;29;20466;-93
2021/10/24 05:08:39;;;;;;;9.97;5.53;;;5.10;99.90;;;;;;4924058;29;20528;-92
2021/10/24 05:11:06;;;;;;;8.57;6.40;;;5.10;99.90;;;;;;4919118;29;20463;-94
2021/10/24 05:13:32;;;;;;;12.35;7.40;;;5.10;99.90;;;;;;4920478;29;20674;-93
2021/10/24 05:15:58;;;;;;;9.05;6.65;;;5.10;99.90;;;;;;4920091;29;20604;-93
2021/10/24 05:18:23;;;;;;;13.27;8.10;;;5.10;99.90;;;;;;4919584;29;20229;-90
2021/10/24 05:20:49;;;;;;;15.80;9.33;;;5.10;99.90;;;;;;4921014;29;20230;-94
2021/10/24 05:23:15;;;;;;;10.00;7.87;;;5.00;99.90;;;;;;4927190;29;20179;-93
2021/10/24 05:25:41;;;;;;;14.53;7.07;;;5.00;99.90;;;;;;4919625;29;20548;-91
2021/10/24 05:28:07;;;;;;;15.47;6.20;;;5.00;99.90;;;;;;4918771;29;20414;-94
2021/10/24 05:30:33;;;;;;;9.55;6.97;;;5.00;99.90;;;;;;4919899;29;20212;-93
2021/10/24 05:32:59;;;;;;;10.90;6.30;;;5.00;99.90;;;;;;4917455;29;20652;-92
2021/10/24 05:35:25;;;;;;;11.77;7.20;;;5.00;99.90;;;;;;4920096;29;20412;-94
2021/10/24 05:37:51;;;;;;;10.50;6.30;;;5.00;99.90;;;;;;4919995;29;20412;-92
2021/10/24 05:40:17;;;;;;;13.63;6.63;;;5.00;99.90;;;;;;4916582;29;20306;-92
2021/10/24 05:42:43;;;;;;;8.63;6.40;;;5.00;99.90;;;;;;4920226;29;20265;-92
2021/10/24 05:45:09;;;;;;;10.60;6.63;;;4.90;99.90;;;;;;4920420;29;20703;-93
2021/10/24 05:47:35;;;;;;;15.52;6.85;;;5.00;99.90;;;;;;4923100;29;20488;-94
2021/10/24 05:50:00;;;;;;;9.73;5.50;;;5.00;99.90;;;;;;4923465;29;20194;-93
2021/10/24 05:52:29;;;;;;;12.30;6.80;;;5.00;99.90;;;;;;4918966;29;20190;-92
2021/10/24 05:54:55;;;;;;;8.90;6.03;;;5.00;99.90;;;;;;4919221;29;20699;-94
2021/10/24 05:57:21;;;;;;;10.50;6.20;;;5.00;99.90;;;;;;4919620;29;20179;-93
2021/10/24 05:59:46;;;;;;;9.63;6.20;;;5.00;99.90;;;;;;4918623;29;20194;-92
2021/10/24 06:02:12;;;;;;;13.73;6.40;;;5.10;99.90;;;;;;4919401;29;20253;-92
2021/10/24 06:04:38;;;;;;;9.97;6.57;;;5.10;99.90;;;;;;4920293;29;20245;-93
2021/10/24 06:07:04;;;;;;;11.33;7.23;;;5.10;99.90;;;;;;4919598;29;20194;-95
2021/10/24 06:09:40;;;;;;;12.50;6.33;;;5.20;99.90;;;;;;4919567;29;20442;-92
2021/10/24 06:12:06;;;;;;;11.57;6.65;;;5.20;99.90;;;;;;4918979;29;20551;-93
2021/10/24 06:14:32;;;;;;;12.75;7.75;;;5.30;99.90;;;;;;4919166;29;20233;-92
2021/10/24 06:16:59;;;;;;;17.27;8.37;;;5.40;99.90;;;;;;4923383;29;20190;-93
2021/10/24 06:19:25;;;;;;;10.25;7.10;;;5.40;99.90;;;;;;4923335;29;20212;-93
2021/10/24 06:21:51;;;;;;;8.40;6.17;;;5.50;99.90;;;;;;4931161;29;20230;-92
2021/10/24 06:24:16;;;;;;;11.23;6.37;;;5.50;99.90;;;;;;4920052;29;20209;-92
2021/10/24 06:26:44;;;;;;;11.40;7.00;;;5.60;99.90;;;;;;4920698;29;20222;-93
2021/10/24 06:29:10;;;;;;;8.48;6.63;;;5.70;99.90;;;;;;4917712;29;20428;-92
2021/10/24 06:31:36;;;;;;;11.63;6.90;;;5.80;99.90;;;;;;4917843;29;20219;-93
2021/10/24 06:34:01;;;;;;;8.73;7.10;;;5.90;99.90;;;;;;4919075;29;20179;-92
2021/10/24 06:36:27;;;;;;;12.07;6.37;;;6.00;99.90;;;;;;4919292;29;20425;-92
2021/10/24 06:38:53;;;;;;;16.60;7.17;;;6.00;99.90;;;;;;4917625;29;20648;-93
2021/10/24 06:41:18;;;;;;;12.77;5.43;;;6.10;99.90;;;;;;4917690;29;20687;-93
2021/10/24 06:43:44;;;;;;;11.40;6.83;;;6.20;99.90;;;;;;4917960;29;20854;-93
2021/10/24 06:46:10;;;;;;;11.00;6.17;;;6.30;99.90;;;;;;4920530;29;20203;-93
2021/10/24 06:48:37;;;;;;;7.22;6.18;;;6.40;99.90;;;;;;4920430;29;20189;-93
2021/10/24 06:51:03;;;;;;;9.80;5.72;;;6.50;99.90;;;;;;4923088;29;20206;-93
2021/10/24 06:53:28;;;;;;;12.47;6.83;;;6.60;99.90;;;;;;4920974;29;20190;-92
2021/10/24 06:55:54;;;;;;;12.37;6.90;;;6.70;99.90;;;;;;4925973;29;20742;-93
2021/10/24 06:58:19;;;;;;;12.03;6.37;;;6.90;99.90;;;;;;4922740;29;20237;-92
2021/10/24 07:00:45;;;;;;;9.70;6.50;;;7.00;99.90;;;;;;4922499;29;20226;-93
2021/10/24 07:03:11;;;;;;;11.70;6.97;;;7.10;99.90;;;;;;4919302;29;20183;-93
2021/10/24 07:05:37;;;;;;;10.57;6.50;;;7.20;99.90;;;;;;4917536;29;20207;-93
2021/10/24 07:08:06;;;;;;;11.88;6.70;;;7.40;99.90;;;;;;4917655;29;20183;-93
2021/10/24 07:10:31;;;;;;;10.63;6.32;;;7.70;99.90;;;;;;4921132;29;20206;-93
2021/10/24 07:12:57;;;;;;;7.90;6.00;;;8.30;99.90;;;;;;4918557;29;20194;-93
2021/10/24 07:15:23;;;;;;;9.07;5.90;;;9.00;99.90;;;;;;4918334;29;20202;-93
2021/10/24 07:17:50;;;;;;;7.18;5.28;;;9.40;99.90;;;;;;4921558;29;20182;-94
2021/10/24 07:20:16;;;;;;;13.50;6.30;;;9.70;99.90;;;;;;4919141;29;20343;-95
2021/10/24 07:22:45;;;;;;;7.33;5.60;;;9.80;99.90;;;;;;4923709;29;20187;-92
2021/10/24 07:25:12;;;;;;;11.63;6.45;;;10.00;99.90;;;;;;4922281;29;20273;-93
2021/10/24 07:27:39;;;;;;;12.52;7.63;;;10.10;99.90;;;;;;4922824;29;20659;-92
2021/10/24 07:30:07;;;;;;;8.65;6.53;;;10.20;99.90;;;;;;4919884;29;20194;-95
2021/10/24 07:32:33;;;;;;;15.02;8.25;;;10.40;99.90;;;;;;4917303;29;20198;-94
2021/10/24 07:34:58;;;;;;;14.30;8.40;;;10.60;99.90;;;;;;4917054;29;20313;-94
2021/10/24 07:37:24;;;;;;;12.27;6.80;;;11.10;99.90;;;;;;4917239;29;20421;-93
2021/10/24 07:39:50;;;;;;;8.00;5.70;;;11.80;99.90;;;;;;4917818;29;20214;-93
2021/10/24 07:42:15;;;;;;;5.70;4.60;;;12.50;99.90;;;;;;4918192;29;20289;-93
2021/10/24 07:44:41;;;;;;;11.63;5.63;;;13.40;99.90;;;;;;4918796;29;20281;-94
2021/10/24 07:47:07;;;;;;;8.57;5.43;;;14.30;99.90;;;;;;4921730;29;20183;-93
2021/10/24 07:49:33;;;;;;;9.77;5.40;;;15.30;99.90;;;;;;4928052;29;20210;-94
2021/10/24 07:51:59;;;;;;;6.80;5.17;;;16.30;99.60;;;;;;4917870;29;20187;-94
2021/10/24 07:54:25;;;;;;;7.40;5.37;;;17.20;97.50;;;;;;4918083;29;20684;-93
2021/10/24 07:56:52;;;;;;;9.10;5.20;;;18.00;96.00;;;;;;4917041;29;20464;-94
2021/10/24 07:59:21;;;;;;;7.30;5.30;;;18.80;94.60;;;;;;4921205;29;20437;-94
2021/10/24 08:01:47;;;;;;;8.03;5.50;;;19.50;93.10;;;;;;4923378;29;20484;-94
2021/10/24 08:04:13;;;;;;;8.87;4.90;;;20.20;92.00;;;;;;4920398;29;20446;-95
2021/10/24 08:06:39;;;;;;;7.60;5.67;;;20.80;90.60;;;;;;4921567;29;20488;-93
2021/10/24 08:09:08;;;;;;;8.43;5.87;;;21.30;89.30;;;;;;4920947;29;20190;-94
2021/10/24 08:11:35;;;;;;;9.87;5.27;;;21.80;87.00;;;;;;4920400;29;20440;-94
2021/10/24 08:14:02;;;;;;;8.83;5.43;;;22.30;85.60;;;;;;4920460;29;20412;-94
2021/10/24 08:16:28;;;;;;;6.60;5.07;;;22.70;84.00;;;;;;4921933;29;20442;-94
2021/10/24 08:18:54;;;;;;;7.83;5.20;;;23.10;81.10;;;;;;4925856;29;20428;-92
2021/10/24 08:21:20;;;;;;;7.03;5.63;;;23.40;79.90;;;;;;4913761;29;20484;-94
2021/10/24 08:23:47;;;;;;;8.20;5.00;;;23.80;78.60;;;;;;4920817;29;20468;-95
2021/10/24 08:26:14;;;;;;;5.60;4.57;;;24.10;77.10;;;;;;4919691;29;20554;-93
2021/10/24 08:28:40;;;;;;;8.20;4.50;;;24.10;75.80;;;;;;4922478;29;20424;-95
2021/10/24 08:31:06;;;;;;;8.67;5.00;;;24.00;74.80;;;;;;4921656;29;20457;-94
2021/10/24 08:33:32;;;;;;;7.17;5.03;;;23.80;74.20;;;;;;4920119;29;20185;-94
2021/10/24 08:35:59;;;;;;;8.20;4.83;;;23.40;74.50;;;;;;4919816;29;21048;-94
2021/10/24 08:38:26;;;;;;;5.93;4.73;;;22.80;75.10;;;;;;4925197;29;20317;-92
2021/10/24 08:40:52;;;;;;;5.97;4.50;;;22.10;76.00;;;;;;4932941;29;20466;-93
2021/10/24 08:43:19;;;;;;;7.00;5.10;;;21.30;77.40;;;;;;4927579;29;20951;-94
2021/10/24 08:45:46;;;;;;;7.10;4.63;;;20.50;79.00;;;;;;4920826;29;20991;-93
2021/10/24 08:48:16;;;;;;;8.90;6.87;;;19.70;80.70;;;;;;4920462;29;20421;-94
2021/10/24 08:50:44;;;;;;;9.00;5.40;;;19.10;81.40;;;;;;4921533;29;20448;-95
2021/10/24 08:53:13;;;;;;;5.90;4.07;;;18.40;82.60;;;;;;4919844;29;20433;-94
2021/10/24 08:55:41;;;;;;;10.70;5.90;;;17.90;84.60;;;;;;4924265;29;20453;-94
2021/10/24 08:58:08;;;;;;;8.57;7.63;;;17.60;85.40;;;;;;4919231;29;20421;-94
2021/10/24 09:00:34;;;;;;;340.97;180.63;;;17.30;86.10;;;;;;4920126;29;20561;-95
2021/10/24 09:03:09;;;;;;;138.23;72.53;;;17.00;87.10;;;;;;4919387;29;20516;-94
2021/10/24 09:05:40;;;;;;;9.87;6.80;;;16.80;87.90;;;;;;4918969;29;20484;-94
2021/10/24 09:08:17;;;;;;;11.80;10.17;;;16.60;87.30;;;;;;4919876;29;20453;-95
2021/10/24 09:11:16;;;;;;;9.60;6.20;;;16.40;88.60;;;;;;4919354;29;20503;-94
2021/10/24 09:13:48;;;;;;;190.87;94.57;;;16.20;89.40;;;;;;4899190;29;20425;-93
2021/10/24 09:16:14;;;;;;;16.63;8.43;;;16.00;90.10;;;;;;4920244;29;20473;-95
2021/10/24 09:18:43;;;;;;;7.60;5.03;;;15.80;90.60;;;;;;4920170;29;20424;-93
2021/10/24 09:21:15;;;;;;;6.67;4.93;;;15.70;90.70;;;;;;4920842;29;20225;-95
2021/10/24 09:23:52;;;;;;;6.37;4.90;;;15.60;90.80;;;;;;4930947;29;20966;-94
2021/10/24 09:26:23;;;;;;;6.30;4.57;;;15.50;90.80;;;;;;4930279;29;20484;-94
2021/10/24 09:29:06;;;;;;;9.00;5.90;;;15.40;90.80;;;;;;4932402;29;20477;-95
2021/10/24 09:31:33;;;;;;;6.67;5.23;;;15.20;91.30;;;;;;4921114;29;20437;-96
2021/10/24 09:34:20;;;;;;;9.67;5.67;;;15.20;91.20;;;;;;4919107;29;20519;-94
2021/10/24 09:37:04;;;;;;;8.43;4.87;;;15.10;91.90;;;;;;4921633;29;20473;-95
2021/10/24 09:39:32;;;;;;;9.57;4.30;;;15.10;91.70;;;;;;4919071;29;20535;-92
2021/10/24 09:42:17;;;;;;;9.27;4.93;;;15.00;91.90;;;;;;4921222;29;20571;-94
2021/10/24 09:45:09;;;;;;;5.47;4.00;;;15.00;91.70;;;;;;4919218;29;20459;-94
2021/10/24 09:47:47;;;;;;;7.33;3.37;;;15.10;91.90;;;;;;4902210;29;20481;-96
2021/10/24 09:50:46;;;;;;;10.13;7.77;;;15.10;91.70;;;;;;4924318;29;20496;-95
2021/10/24 09:53:19;;;;;;;13.50;9.77;;;15.10;91.10;;;;;;4919028;29;20435;-95
2021/10/24 09:55:48;;;;;;;6.60;4.00;;;15.10;90.90;;;;;;4918023;29;20473;-94
2021/10/24 09:58:15;;;;;;;6.30;3.30;;;15.10;91.20;;;;;;4918007;29;20429;-96
2021/10/24 10:00:43;;;;;;;4.93;3.50;;;15.10;91.30;;;;;;4923577;29;20487;-95
2021/10/24 10:03:09;;;;;;;9.80;5.70;;;15.00;91.10;;;;;;4920293;29;20453;-95
2021/10/24 10:05:39;;;;;;;10.50;6.50;;;15.00;91.00;;;;;;4918150;29;20544;-94
2021/10/24 10:08:09;;;;;;;6.27;3.80;;;15.10;90.70;;;;;;4917893;29;20436;-95
2021/10/24 10:10:44;;;;;;;6.27;3.90;;;15.00;90.90;;;;;;4921210;29;20976;-95
2021/10/24 10:13:18;;;;;;;8.90;3.80;;;15.00;91.50;;;;;;4927457;29;20452;-96
2021/10/24 10:15:47;;;;;;;3.47;3.13;;;15.10;91.60;;;;;;4922882;29;20512;-95
2021/10/24 10:18:13;;;;;;;6.67;3.40;;;15.10;91.30;;;;;;4919310;29;20417;-94
2021/10/24 10:20:51;;;;;;;8.77;3.97;;;15.20;91.40;;;;;;4921218;29;20605;-95
2021/10/24 10:23:37;;;;;;;7.43;3.53;;;15.20;91.50;;;;;;4918324;29;20189;-94
2021/10/24 10:26:33;;;;;;;4.53;3.90;;;15.10;91.30;;;;;;4918211;29;20464;-96
2021/10/24 10:28:59;;;;;;;4.10;3.13;;;15.10;90.80;;;;;;4918362;29;20789;-94
2021/10/24 10:31:25;;;;;;;5.70;3.27;;;15.20;90.60;;;;;;4921350;29;20538;-93
2021/10/24 10:34:05;;;;;;;7.73;3.43;;;15.20;90.80;;;;;;4918764;29;20425;-95
2021/10/24 10:36:49;;;;;;;4.93;3.40;;;15.20;90.50;;;;;;4919757;29;20421;-94
2021/10/24 10:39:35;;;;;;;4.23;2.90;;;15.20;90.30;;;;;;4926672;29;20436;-96
2021/10/24 10:42:21;;;;;;;7.10;2.93;;;15.20;90.30;;;;;;4920217;29;20509;-94
2021/10/24 10:45:12;;;;;;;3.90;2.80;;;15.20;89.80;;;;;;4919648;29;20468;-95
2021/10/24 10:48:01;;;;;;;3.47;2.63;;;15.30;88.10;;;;;;4917682;29;20983;-94
2021/10/24 10:50:30;;;;;;;6.80;2.70;;;15.30;87.70;;;;;;4918629;29;20473;-94
2021/10/24 10:52:57;;;;;;;5.47;2.73;;;15.30;88.10;;;;;;4918183;29;20421;-93
2021/10/24 10:55:23;;;;;;;3.10;2.80;;;15.30;89.00;;;;;;4918086;29;20451;-94
2021/10/24 10:57:50;;;;;;;3.63;2.80;;;15.30;88.60;;;;;;4919418;29;20455;-92
2021/10/24 11:00:33;;;;;;;4.43;2.70;;;15.30;87.60;;;;;;4918732;29;20795;-95
2021/10/24 11:02:59;;;;;;;6.63;3.23;;;15.30;87.60;;;;;;4921331;29;20452;-95
2021/10/24 11:05:35;;;;;;;5.80;2.50;;;15.30;87.80;;;;;;4918775;29;20785;-95
2021/10/24 11:08:00;;;;;;;3.90;2.50;;;15.30;87.20;;;;;;4917261;29;20754;-92
2021/10/24 11:10:46;;;;;;;3.77;2.00;;;15.30;87.40;;;;;;4918705;29;20498;-96
2021/10/24 11:13:31;;;;;;;5.40;2.70;;;15.30;88.00;;;;;;4923486;29;20198;-94
2021/10/24 11:16:32;;;;;;;4.53;2.10;;;15.30;86.70;;;;;;4927572;29;20448;-95
2021/10/24 11:18:58;;;;;;;5.90;2.70;;;15.30;86.80;;;;;;4922259;29;20876;-96
2021/10/24 11:21:28;;;;;;;5.50;2.20;;;15.30;85.70;;;;;;4917999;29;20476;-94
2021/10/24 11:23:59;;;;;;;2.93;2.63;;;15.30;86.10;;;;;;4916754;29;20418;-94
2021/10/24 11:26:25;;;;;;;3.20;2.37;;;15.30;86.70;;;;;;4918072;29;20477;-93
2021/10/24 11:28:51;;;;;;;3.90;2.10;;;15.40;86.20;;;;;;4915675;29;20496;-95
2021/10/24 11:31:21;;;;;;;3.73;1.80;;;15.40;84.60;;;;;;4918021;29;20460;-93
2021/10/24 11:33:52;;;;;;;5.83;2.20;;;15.30;84.20;;;;;;4937814;29;20949;-95
2021/10/24 11:36:27;;;;;;;6.10;1.87;;;15.30;83.70;;;;;;4921556;29;20439;-95
2021/10/24 11:39:03;;;;;;;2.97;2.07;;;15.30;84.80;;;;;;4924338;29;20416;-96
2021/10/24 11:41:32;;;;;;;3.70;2.10;;;15.30;86.00;;;;;;4920854;29;20482;-93
2021/10/24 11:44:14;;;;;;;3.43;2.50;;;15.30;85.80;;;;;;4920861;29;20837;-96
2021/10/24 11:46:42;;;;;;;2.23;1.97;;;15.40;84.70;;;;;;4938864;29;20427;-96
2021/10/24 11:49:08;;;;;;;4.43;2.63;;;15.40;83.60;;;;;;4925216;29;20941;-95
2021/10/24 11:51:34;;;;;;;2.20;1.57;;;15.50;83.00;;;;;;4946695;29;20443;-95
2021/10/24 11:54:07;;;;;;;2.00;1.80;;;15.50;80.70;;;;;;4925247;29;20193;-96
2021/10/24 11:57:02;;;;;;;4.70;1.90;;;15.50;81.80;;;;;;4925895;29;20432;-96
2021/10/24 11:59:38;;;;;;;3.83;1.80;;;15.50;81.50;;;;;;4947910;29;20436;-92
2021/10/24 12:02:14;;;;;;;3.20;2.20;;;15.50;81.70;;;;;;4941164;29;20833;-95
2021/10/24 12:04:40;;;;;;;3.47;2.33;;;15.50;81.80;;;;;;4926225;29;20499;-94
2021/10/24 12:07:06;;;;;;;5.13;2.67;;;15.40;81.30;;;;;;4923366;29;20440;-92
2021/10/24 12:09:39;;;;;;;2.70;1.80;;;15.40;81.50;;;;;;4923349;29;20432;-95
2021/10/24 12:12:23;;;;;;;5.63;2.10;;;15.30;81.20;;;;;;4923203;29;20436;-96
2021/10/24 12:15:02;;;;;;;2.83;2.40;;;15.30;81.30;;;;;;4923568;29;20450;-94
2021/10/24 12:17:36;;;;;;;4.30;3.10;;;15.30;83.20;;;;;;4927307;29;20428;-95
2021/10/24 12:20:19;;;;;;;3.50;3.00;;;15.30;83.90;;;;;;4926160;29;20818;-96
2021/10/24 12:22:59;;;;;;;2.90;2.20;;;15.30;83.90;;;;;;4923754;29;20478;-95
2021/10/24 12:25:42;;;;;;;4.77;3.33;;;15.30;84.40;;;;;;4923666;29;20448;-96
2021/10/24 12:28:18;;;;;;;7.33;3.30;;;15.40;83.60;;;;;;4926385;29;20511;-95
2021/10/24 12:30:57;;;;;;;2.17;1.97;;;15.40;83.70;;;;;;4927240;29;20495;-93
2021/10/24 12:33:47;;;;;;;6.10;3.20;;;15.40;84.00;;;;;;4923802;29;21016;-94
2021/10/24 12:36:33;;;;;;;5.60;1.90;;;15.30;83.50;;;;;;4922838;29;20902;-94
2021/10/24 12:39:03;;;;;;;5.43;2.27;;;15.30;83.40;;;;;;4923989;29;20420;-96
2021/10/24 12:41:33;;;;;;;3.23;2.57;;;15.30;82.90;;;;;;4925818;29;20504;-94
2021/10/24 12:43:59;;;;;;;3.40;2.80;;;15.30;83.50;;;;;;4929222;29;20460;-96
2021/10/24 12:46:35;;;;;;;3.30;2.20;;;15.30;83.60;;;;;;4923300;29;20484;-96
2021/10/24 12:49:23;;;;;;;3.43;2.07;;;15.30;83.30;;;;;;4930793;29;20254;-94
2021/10/24 12:51:52;;;;;;;10.30;8.30;;;15.40;83.30;;;;;;4927777;29;20491;-95
2021/10/24 12:54:31;;;;;;;4.03;2.70;;;15.40;83.80;;;;;;4923672;29;20472;-94
2021/10/24 12:56:57;;;;;;;4.93;3.87;;;15.50;83.60;;;;;;4923000;29;20428;-95
2021/10/24 12:59:24;;;;;;;6.30;3.93;;;15.50;83.30;;;;;;4939816;29;20448;-95